createdAt,value
2023-02-13T00:02:46.323Z,28.23
2023-02-13T00:05:13.358Z,27.42
2023-02-13T00:07:40.230Z,25.50
2023-02-13T00:10:07.885Z,26.70
2023-02-13T00:12:35.157Z,26.35
2023-02-13T00:15:02.725Z,27.55
2023-02-13T00:17:29.754Z,26.23
2023-02-13T00:19:56.578Z,25.70
2023-02-13T00:22:24.312Z,24.83
2023-02-13T00:24:51.378Z,25.33
2023-02-13T00:27:18.339Z,26.10
2023-02-13T00:29:45.301Z,25.80
2023-02-13T00:32:12.341Z,24.48
2023-02-13T00:34:39.343Z,25.38
2023-02-13T00:37:06.237Z,24.33
2023-02-13T00:39:33.130Z,24.88
2023-02-13T00:41:59.972Z,22.70
2023-02-13T00:44:26.822Z,24.77
2023-02-13T00:46:53.683Z,24.50
2023-02-13T00:49:20.545Z,23.15
2023-02-13T00:51:47.432Z,23.10
2023-02-13T00:54:14.350Z,23.02
2023-02-13T00:56:41.250Z,22.52
2023-02-13T00:59:08.144Z,24.00
2023-02-13T01:01:35.110Z,23.40
2023-02-13T01:04:02.315Z,23.38
2023-02-13T01:06:29.203Z,22.17
2023-02-13T01:08:56.051Z,21.98
2023-02-13T01:11:23.069Z,22.10
2023-02-13T01:13:49.953Z,21.80
2023-02-13T01:16:17.942Z,21.13
2023-02-13T01:18:45.000Z,21.45
2023-02-13T01:21:21.865Z,21.35
2023-02-13T01:23:48.823Z,21.30
2023-02-13T01:26:20.039Z,21.10
2023-02-13T01:28:47.202Z,20.80
2023-02-13T01:31:14.539Z,21.48
2023-02-13T01:33:41.497Z,21.30
2023-02-13T01:36:10.172Z,20.73
2023-02-13T01:38:37.096Z,22.15
2023-02-13T01:41:04.374Z,19.95
2023-02-13T01:43:49.758Z,20.08
2023-02-13T01:46:22.455Z,20.15
2023-02-13T01:48:50.113Z,19.45
2023-02-13T01:51:23.346Z,19.42
2023-02-13T01:53:54.834Z,20.25
2023-02-13T01:56:21.627Z,20.27
2023-02-13T01:58:50.721Z,18.45
2023-02-13T02:01:17.934Z,19.23
2023-02-13T02:03:55.222Z,18.38
2023-02-13T02:06:30.630Z,19.20
2023-02-13T02:09:02.363Z,18.45
2023-02-13T02:11:52.712Z,18.40
2023-02-13T02:14:20.189Z,18.13
2023-02-13T02:16:47.168Z,18.73
2023-02-13T02:19:26.302Z,18.00
2023-02-13T02:22:08.300Z,17.98
2023-02-13T02:24:48.156Z,17.17
2023-02-13T02:27:31.468Z,17.25
2023-02-13T02:30:10.415Z,17.45
2023-02-13T02:32:50.358Z,17.20
2023-02-13T02:35:20.483Z,17.23
2023-02-13T02:38:08.938Z,16.35
2023-02-13T02:41:02.296Z,15.73
2023-02-13T02:43:59.583Z,15.70
2023-02-13T02:46:37.898Z,16.40
2023-02-13T02:49:32.140Z,15.70
2023-02-13T02:52:08.873Z,15.43
2023-02-13T02:55:06.486Z,15.80
2023-02-13T02:57:56.095Z,15.63
2023-02-13T03:00:43.845Z,15.95
2023-02-13T03:03:48.200Z,14.80
2023-02-13T03:06:15.123Z,13.98
2023-02-13T03:09:02.706Z,13.20
2023-02-13T03:11:47.985Z,14.13
2023-02-13T03:14:20.702Z,13.20
2023-02-13T03:17:06.919Z,13.43
2023-02-13T03:20:57.483Z,13.35
2023-02-13T03:23:53.306Z,12.63
2023-02-13T03:26:50.332Z,12.45
2023-02-13T03:30:02.160Z,12.50
2023-02-13T03:32:50.686Z,13.15
2023-02-13T03:35:55.707Z,11.82
2023-02-13T03:38:34.109Z,10.93
2023-02-13T03:41:30.877Z,11.82
2023-02-13T03:44:14.446Z,12.07
2023-02-13T03:46:44.738Z,10.63
2023-02-13T03:49:42.250Z,11.52
2023-02-13T03:52:29.310Z,11.00
2023-02-13T03:55:15.393Z,11.25
2023-02-13T03:58:03.273Z,11.50
2023-02-13T04:00:35.806Z,10.35
2023-02-13T04:03:28.926Z,10.63
2023-02-13T04:06:16.386Z,10.68
2023-02-13T04:08:43.538Z,10.05
2023-02-13T04:11:32.710Z,9.95
2023-02-13T04:14:01.412Z,9.15
2023-02-13T04:16:43.837Z,9.93
2023-02-13T04:19:11.386Z,9.80
2023-02-13T04:21:42.946Z,9.93
2023-02-13T04:24:10.330Z,9.55
2023-02-13T04:26:40.070Z,8.70
2023-02-13T04:31:34.243Z,9.48
2023-02-13T04:34:01.555Z,8.77
2023-02-13T04:36:28.472Z,8.93
2023-02-13T04:38:55.415Z,8.77
2023-02-13T04:41:22.487Z,8.65
2023-02-13T04:43:49.425Z,8.40
2023-02-13T04:46:16.300Z,9.07
2023-02-13T04:51:10.337Z,8.52
2023-02-13T04:53:37.310Z,8.40
2023-02-13T04:56:04.897Z,7.60
2023-02-13T04:58:31.770Z,7.90
2023-02-13T05:00:59.077Z,7.68
2023-02-13T05:03:26.181Z,7.95
2023-02-13T05:05:53.082Z,7.93
2023-02-13T05:08:20.158Z,7.95
2023-02-13T05:10:47.231Z,7.93
2023-02-13T05:13:14.106Z,8.55
2023-02-13T05:15:41.074Z,7.47
2023-02-13T05:18:07.974Z,6.90
2023-02-13T05:20:34.890Z,7.07
2023-02-13T05:23:20.229Z,7.50
2023-02-13T05:25:47.116Z,7.32
2023-02-13T05:28:32.529Z,6.90
2023-02-13T05:30:59.870Z,7.00
2023-02-13T05:33:27.855Z,6.95
2023-02-13T05:35:54.735Z,6.80
2023-02-13T05:38:21.667Z,7.03
2023-02-13T05:40:48.564Z,6.90
2023-02-13T05:43:15.478Z,7.38
2023-02-13T05:45:42.432Z,7.13
2023-02-13T05:48:09.313Z,6.63
2023-02-13T05:50:36.300Z,6.93
2023-02-13T05:53:03.261Z,6.28
2023-02-13T05:55:30.173Z,6.35
2023-02-13T05:57:57.863Z,6.00
2023-02-13T06:00:25.167Z,6.30
2023-02-13T06:02:52.217Z,7.00
2023-02-13T06:05:19.154Z,6.00
2023-02-13T06:07:46.063Z,6.15
2023-02-13T06:10:13.039Z,6.43
2023-02-13T06:12:39.922Z,6.07
2023-02-13T06:15:07.512Z,5.78
2023-02-13T06:17:34.414Z,5.53
2023-02-13T06:20:01.446Z,5.72
2023-02-13T06:22:28.317Z,5.15
2023-02-13T06:24:55.198Z,5.68
2023-02-13T06:27:22.089Z,5.45
2023-02-13T06:29:48.994Z,6.00
2023-02-13T06:32:15.834Z,5.05
2023-02-13T06:34:42.731Z,5.35
2023-02-13T06:37:09.711Z,5.25
2023-02-13T06:39:36.575Z,5.22
2023-02-13T06:42:03.422Z,4.82
2023-02-13T06:44:30.311Z,5.22
2023-02-13T06:46:57.237Z,5.47
2023-02-13T06:49:24.170Z,5.25
2023-02-13T06:51:51.013Z,5.28
2023-02-13T06:54:18.111Z,5.03
2023-02-13T06:56:45.014Z,5.00
2023-02-13T06:59:11.900Z,5.20
2023-02-13T07:01:38.845Z,5.05
2023-02-13T07:04:05.773Z,4.90
2023-02-13T07:06:33.580Z,4.88
2023-02-13T07:09:04.720Z,4.57
2023-02-13T07:11:31.658Z,5.28
2023-02-13T07:13:58.532Z,4.63
2023-02-13T07:16:25.468Z,5.00
2023-02-13T07:18:52.422Z,4.93
2023-02-13T07:21:19.289Z,4.53
2023-02-13T07:23:46.228Z,4.90
2023-02-13T07:26:13.141Z,5.28
2023-02-13T07:28:40.093Z,4.88
2023-02-13T07:31:07.112Z,43.78
2023-02-13T07:33:35.049Z,49.90
2023-02-13T07:36:03.613Z,40.22
2023-02-13T07:38:31.598Z,39.15
2023-02-13T07:40:59.829Z,35.47
2023-02-13T07:43:27.584Z,34.38
2023-02-13T07:45:57.359Z,31.23
2023-02-13T07:48:24.884Z,29.50
2023-02-13T07:50:51.804Z,27.15
2023-02-13T07:53:18.659Z,25.80
2023-02-13T07:55:45.570Z,25.17
2023-02-13T07:58:12.481Z,22.65
2023-02-13T08:00:39.354Z,21.70
2023-02-13T08:03:06.241Z,19.63
2023-02-13T08:05:33.856Z,18.85
2023-02-13T08:08:00.722Z,18.85
2023-02-13T08:10:46.261Z,18.42
2023-02-13T08:13:14.234Z,15.85
2023-02-13T08:15:41.279Z,17.25
2023-02-13T08:18:08.198Z,14.73
2023-02-13T08:20:35.193Z,15.43
2023-02-13T08:23:10.460Z,14.82
2023-02-13T08:25:40.681Z,15.13
2023-02-13T08:28:07.628Z,13.45
2023-02-13T08:30:34.567Z,13.65
2023-02-13T08:33:01.650Z,12.00
2023-02-13T08:35:31.581Z,12.85
2023-02-13T08:38:02.822Z,13.10
2023-02-13T08:40:29.722Z,11.95
2023-02-13T08:43:01.489Z,11.60
2023-02-13T08:45:28.627Z,11.25
2023-02-13T08:48:04.009Z,11.43
2023-02-13T08:50:31.122Z,11.55
2023-02-13T08:52:58.886Z,10.43
2023-02-13T08:55:27.008Z,11.38
2023-02-13T08:57:53.888Z,11.52
2023-02-13T09:00:21.526Z,10.52
2023-02-13T09:02:48.517Z,10.30
2023-02-13T09:05:15.695Z,10.10
2023-02-13T09:07:42.564Z,10.45
2023-02-13T09:10:09.800Z,10.13
2023-02-13T09:12:36.890Z,13.60
2023-02-13T09:15:05.523Z,35.15
2023-02-13T09:17:32.463Z,43.92
2023-02-13T09:19:59.415Z,41.65
2023-02-13T09:22:26.385Z,32.72
2023-02-13T09:24:53.266Z,27.63
2023-02-13T09:27:20.149Z,23.10
2023-02-13T09:29:47.384Z,21.88
2023-02-13T09:32:14.397Z,20.35
2023-02-13T09:34:41.341Z,19.05
2023-02-13T09:37:08.202Z,17.45
2023-02-13T09:39:35.099Z,17.27
2023-02-13T09:42:02.473Z,16.67
2023-02-13T09:44:39.104Z,15.40
2023-02-13T09:47:18.018Z,15.57
2023-02-13T09:49:57.579Z,15.65
2023-02-13T09:52:33.636Z,14.68
2023-02-13T09:55:02.022Z,14.27
2023-02-13T09:57:31.565Z,13.57
2023-02-13T10:00:11.724Z,13.57
2023-02-13T10:02:41.486Z,13.10
2023-02-13T10:08:28.918Z,12.85
2023-02-13T10:11:28.197Z,11.75
2023-02-13T10:13:55.017Z,12.57
2023-02-13T10:16:36.986Z,11.95
2023-02-13T10:19:12.904Z,11.80
2023-02-13T10:21:50.892Z,11.52
2023-02-13T10:24:32.881Z,10.93
2023-02-13T10:27:01.619Z,11.00
2023-02-13T10:30:05.359Z,10.88
2023-02-13T10:33:15.224Z,10.48
2023-02-13T10:35:44.528Z,11.18
2023-02-13T10:38:17.705Z,34.65
2023-02-13T10:41:04.267Z,87.32
2023-02-13T10:43:46.190Z,87.45
2023-02-13T10:46:35.820Z,70.20
2023-02-13T10:52:08.518Z,40.90
2023-02-13T10:55:15.593Z,38.10
2023-02-13T10:58:01.908Z,64.72
2023-02-13T11:00:54.026Z,63.13
2023-02-13T11:03:26.579Z,51.10
2023-02-13T11:05:55.181Z,40.90
2023-02-13T11:08:34.874Z,38.90
2023-02-13T11:13:30.070Z,36.00
2023-02-13T11:16:07.924Z,32.83
2023-02-13T11:18:44.291Z,31.13
2023-02-13T11:21:16.696Z,29.85
2023-02-13T11:23:54.489Z,27.60
2023-02-13T11:26:34.903Z,25.60
2023-02-13T11:29:05.298Z,25.15
2023-02-13T11:31:34.293Z,25.10
2023-02-13T11:34:23.558Z,23.98
2023-02-13T11:36:55.134Z,32.60
2023-02-13T11:39:23.556Z,35.15
2023-02-13T11:41:53.485Z,34.35
2023-02-13T11:44:26.938Z,31.55
2023-02-13T11:46:58.976Z,29.65
2023-02-13T11:49:53.862Z,27.95
2023-02-13T11:52:28.647Z,26.42
2023-02-13T11:55:01.842Z,24.15
2023-02-13T11:57:36.113Z,24.10
2023-02-13T12:00:28.777Z,22.60
2023-02-13T12:02:55.802Z,21.35
2023-02-13T12:05:25.220Z,60.33
2023-02-13T12:08:00.186Z,82.32
2023-02-13T12:10:29.205Z,82.45
2023-02-13T12:13:06.470Z,69.68
2023-02-13T12:15:34.688Z,58.10
2023-02-13T12:18:27.081Z,48.60
2023-02-13T12:21:26.197Z,44.47
2023-02-13T12:24:22.352Z,40.55
2023-02-13T12:26:56.326Z,39.03
2023-02-13T12:29:36.178Z,36.60
2023-02-13T12:32:21.082Z,35.15
2023-02-13T12:35:10.518Z,34.15
2023-02-13T12:37:49.320Z,31.70
2023-02-13T12:40:38.015Z,31.00
2023-02-13T12:43:29.210Z,30.87
2023-02-13T12:46:21.306Z,30.95
2023-02-13T12:49:25.674Z,27.27
2023-02-13T12:52:13.669Z,28.83
2023-02-13T12:54:56.067Z,27.65
2023-02-13T12:57:37.922Z,27.08
2023-02-13T13:00:26.351Z,27.38
2023-02-13T13:03:30.492Z,26.70
2023-02-13T13:06:22.627Z,26.15
2023-02-13T13:09:14.824Z,25.42
2023-02-13T13:12:05.404Z,23.10
2023-02-13T13:15:13.349Z,23.45
2023-02-13T13:17:58.376Z,22.92
2023-02-13T13:20:31.005Z,22.45
2023-02-13T13:23:05.723Z,22.10
2023-02-13T13:25:38.661Z,21.67
2023-02-13T13:28:38.487Z,22.30
2023-02-13T13:31:06.603Z,21.63
2023-02-13T13:33:34.366Z,21.50
2023-02-13T13:36:26.729Z,21.30
2023-02-13T13:39:06.059Z,20.35
2023-02-13T13:42:02.427Z,20.25
2023-02-13T13:45:14.837Z,21.58
2023-02-13T13:48:20.121Z,19.48
2023-02-13T13:50:47.581Z,19.25
2023-02-13T13:53:20.306Z,19.58
2023-02-13T13:55:47.464Z,19.10
2023-02-13T13:58:24.923Z,19.45
2023-02-13T14:01:24.131Z,18.98
2023-02-13T14:03:58.042Z,19.17
2023-02-13T14:06:28.509Z,18.52
2023-02-13T14:09:01.421Z,18.73
2023-02-13T14:11:31.297Z,19.38
2023-02-13T14:13:58.334Z,18.38
2023-02-13T14:16:45.304Z,17.52
2023-02-13T14:19:30.383Z,17.63
2023-02-13T14:22:20.274Z,18.52
2023-02-13T14:24:58.290Z,17.38
2023-02-13T14:27:29.561Z,17.15
2023-02-13T14:29:56.991Z,16.67
2023-02-13T14:32:36.643Z,17.52
2023-02-13T14:37:39.981Z,16.40
2023-02-13T14:40:27.897Z,16.30
2023-02-13T14:42:57.008Z,16.88
2023-02-13T14:45:33.056Z,15.60
2023-02-13T14:48:06.568Z,15.23
2023-02-13T14:50:45.954Z,15.15
2023-02-13T14:53:26.391Z,15.35
2023-02-13T14:56:18.836Z,14.95
2023-02-13T14:59:14.791Z,15.52
2023-02-13T15:02:02.813Z,14.75
2023-02-13T15:04:43.297Z,14.80
2023-02-13T15:07:29.877Z,15.00
2023-02-13T15:10:04.453Z,14.93
2023-02-13T15:12:37.210Z,15.15
2023-02-13T15:15:30.482Z,14.90
2023-02-13T15:18:02.173Z,14.73
2023-02-13T15:20:32.226Z,14.25
2023-02-13T15:22:59.821Z,13.13
2023-02-13T15:25:32.153Z,13.55
2023-02-13T15:27:59.841Z,13.20
2023-02-13T15:30:32.155Z,13.77
2023-02-13T15:33:17.924Z,13.85
2023-02-13T15:35:45.228Z,13.50
2023-02-13T15:38:20.733Z,13.57
2023-02-13T15:40:50.915Z,13.43
2023-02-13T15:43:34.204Z,13.20
2023-02-13T15:46:07.306Z,18.63
2023-02-13T15:48:35.615Z,31.92
2023-02-13T15:51:03.495Z,30.55
2023-02-13T15:53:30.532Z,25.75
2023-02-13T15:56:00.391Z,23.40
2023-02-13T15:58:31.313Z,21.52
2023-02-13T16:01:05.793Z,20.65
2023-02-13T16:03:33.653Z,18.02
2023-02-13T16:06:01.013Z,18.08
2023-02-13T16:08:36.401Z,17.67
2023-02-13T16:11:37.883Z,16.77
2023-02-13T16:14:17.420Z,15.88
2023-02-13T16:19:51.006Z,16.48
2023-02-13T16:22:29.679Z,15.73
2023-02-13T16:25:16.391Z,14.93
2023-02-13T16:27:48.890Z,14.90
2023-02-13T16:30:27.838Z,14.95
2023-02-13T16:33:16.624Z,14.35
2023-02-13T16:35:50.945Z,13.90
2023-02-13T16:38:37.322Z,13.55
2023-02-13T16:41:17.611Z,13.35
2023-02-13T16:43:46.201Z,13.40
2023-02-13T16:46:22.042Z,13.02
2023-02-13T16:48:48.915Z,12.80
2023-02-13T16:51:17.194Z,13.10
2023-02-13T16:53:44.126Z,13.05
2023-02-13T16:56:11.828Z,12.98
2023-02-13T16:58:38.763Z,12.20
2023-02-13T17:01:05.897Z,13.05
2023-02-13T17:03:33.215Z,12.77
2023-02-13T17:06:03.418Z,11.57
2023-02-13T17:08:33.251Z,12.10
2023-02-13T17:11:07.352Z,12.30
2023-02-13T17:13:34.678Z,11.93
2023-02-13T17:16:01.652Z,10.77
2023-02-13T17:18:28.578Z,11.13
2023-02-13T17:20:55.519Z,12.10
2023-02-13T17:23:24.170Z,11.38
2023-02-13T17:25:52.631Z,11.70
2023-02-13T17:28:21.236Z,10.68
2023-02-13T17:30:50.475Z,11.20
2023-02-13T17:33:24.478Z,10.77
2023-02-13T17:35:51.676Z,11.23
2023-02-13T17:38:18.929Z,11.60
2023-02-13T17:40:45.972Z,10.43
2023-02-13T17:43:14.699Z,10.10
2023-02-13T17:45:42.249Z,10.17
2023-02-13T17:48:09.499Z,10.73
2023-02-13T17:50:37.021Z,9.35
2023-02-13T17:53:24.497Z,9.80
2023-02-13T17:55:52.101Z,10.15
2023-02-13T17:58:19.020Z,10.10
2023-02-13T18:00:46.167Z,10.10
2023-02-13T18:03:13.115Z,9.73
2023-02-13T18:05:40.677Z,9.60
2023-02-13T18:08:08.074Z,9.40
2023-02-13T18:10:36.615Z,8.98
2023-02-13T18:13:04.476Z,9.60
2023-02-13T18:15:36.202Z,10.05
2023-02-13T18:18:03.150Z,9.15
2023-02-13T18:20:30.255Z,35.20
2023-02-13T18:22:57.150Z,52.67
2023-02-13T18:25:24.158Z,42.75
2023-02-13T18:27:51.464Z,36.65
2023-02-13T18:30:20.430Z,34.50
2023-02-13T18:32:52.716Z,29.88
2023-02-13T18:35:20.368Z,26.73
2023-02-13T18:37:47.331Z,24.73
2023-02-13T18:40:15.154Z,22.30
2023-02-13T18:42:42.065Z,20.67
2023-02-13T18:45:09.661Z,19.90
2023-02-13T18:47:36.601Z,19.25
2023-02-13T18:50:04.479Z,17.42
2023-02-13T18:52:31.399Z,16.70
2023-02-13T18:54:58.299Z,16.83
2023-02-13T18:57:25.264Z,16.17
2023-02-13T18:59:52.171Z,16.15
2023-02-13T19:02:19.261Z,16.33
2023-02-13T19:04:46.157Z,15.20
2023-02-13T19:07:13.112Z,15.43
2023-02-13T19:09:40.405Z,16.63
2023-02-13T19:12:08.262Z,17.15
2023-02-13T19:14:35.340Z,18.13
2023-02-13T19:17:02.359Z,17.45
2023-02-13T19:19:30.185Z,18.00
2023-02-13T19:21:57.197Z,18.40
2023-02-13T19:24:24.244Z,17.73
2023-02-13T19:26:51.206Z,18.75
2023-02-13T19:29:19.017Z,17.40
2023-02-13T19:31:46.129Z,18.60
2023-02-13T19:34:13.084Z,17.70
2023-02-13T19:36:39.980Z,17.02
2023-02-13T19:39:09.017Z,18.08
2023-02-13T19:41:36.144Z,18.13
2023-02-13T19:44:05.271Z,17.73
2023-02-13T19:46:33.131Z,16.50
2023-02-13T19:49:00.341Z,17.50
2023-02-13T19:51:32.159Z,16.13
2023-02-13T19:54:01.471Z,17.10
2023-02-13T19:56:29.508Z,15.68
2023-02-13T19:58:56.682Z,16.10
2023-02-13T20:01:25.214Z,15.73
2023-02-13T20:03:52.716Z,14.35
2023-02-13T20:06:23.059Z,15.48
2023-02-13T20:08:50.472Z,14.82
2023-02-13T20:11:18.486Z,14.18
2023-02-13T20:13:45.415Z,13.82
2023-02-13T20:16:14.763Z,23.50
2023-02-13T20:18:41.842Z,75.50
2023-02-13T20:21:13.871Z,70.20
2023-02-13T20:23:41.701Z,63.53
2023-02-13T20:26:13.926Z,53.65
2023-02-13T20:28:41.802Z,48.13
2023-02-13T20:31:10.874Z,46.60
2023-02-13T20:33:39.159Z,100.15
2023-02-13T20:36:18.243Z,99.13
2023-02-13T20:38:45.241Z,90.18
2023-02-13T20:41:14.880Z,79.50
2023-02-13T20:46:09.750Z,62.30
2023-02-13T20:48:37.645Z,59.03
2023-02-13T20:51:06.631Z,53.97
2023-02-13T20:53:33.560Z,51.80
2023-02-13T20:56:08.293Z,48.92
2023-02-13T20:58:35.351Z,47.95
2023-02-13T21:01:02.995Z,45.55
2023-02-13T21:03:30.207Z,42.38
2023-02-13T21:05:57.200Z,41.80
2023-02-13T21:08:24.127Z,40.35
2023-02-13T21:10:51.078Z,39.20
2023-02-13T21:13:17.966Z,38.00
2023-02-13T21:15:48.186Z,36.40
2023-02-13T21:18:15.548Z,37.00
2023-02-13T21:20:42.480Z,35.38
2023-02-13T21:23:09.412Z,34.22
2023-02-13T21:25:36.314Z,33.42
2023-02-13T21:28:03.252Z,32.95
2023-02-13T21:30:30.294Z,31.85
2023-02-13T21:32:57.216Z,31.48
2023-02-13T21:35:24.160Z,31.95
2023-02-13T21:37:51.072Z,30.13
2023-02-13T21:40:18.138Z,29.02
2023-02-13T21:42:45.091Z,28.27
2023-02-13T21:45:11.975Z,27.48
2023-02-13T21:47:38.966Z,28.50
2023-02-13T21:50:06.824Z,26.63
2023-02-13T21:52:35.143Z,25.48
2023-02-13T21:55:02.393Z,25.98
2023-02-13T21:57:29.339Z,26.00
2023-02-13T21:59:57.140Z,24.98
2023-02-13T22:02:25.071Z,25.67
2023-02-13T22:04:52.045Z,25.20
2023-02-13T22:07:18.926Z,23.58
2023-02-13T22:09:45.816Z,24.88
2023-02-13T22:12:12.789Z,22.63
2023-02-13T22:14:39.868Z,22.52
2023-02-13T22:17:06.870Z,22.85
2023-02-13T22:19:33.910Z,21.80
2023-02-13T22:22:01.162Z,21.60
2023-02-13T22:24:28.167Z,22.08
2023-02-13T22:26:55.220Z,20.80
2023-02-13T22:29:23.837Z,27.00
2023-02-13T22:31:50.859Z,90.00
2023-02-13T22:34:17.925Z,81.55
2023-02-13T22:36:44.799Z,72.75
2023-02-13T22:39:12.618Z,63.03
2023-02-13T22:41:39.506Z,52.80
2023-02-13T22:44:06.483Z,46.95
2023-02-13T22:46:33.834Z,44.00
2023-02-13T22:49:01.221Z,44.13
2023-02-13T22:51:33.521Z,41.13
2023-02-13T22:54:00.989Z,39.45
2023-02-13T22:56:29.455Z,39.47
2023-02-13T22:58:56.484Z,37.75
2023-02-13T23:01:25.350Z,36.42
2023-02-13T23:03:52.438Z,34.63
2023-02-13T23:06:19.776Z,32.85
2023-02-13T23:08:49.083Z,33.40
2023-02-13T23:11:35.748Z,30.85
2023-02-13T23:14:03.398Z,32.40
2023-02-13T23:16:52.893Z,31.10
2023-02-13T23:19:21.087Z,29.42
2023-02-13T23:21:48.058Z,29.65
2023-02-13T23:24:15.063Z,28.65
2023-02-13T23:26:41.971Z,27.80
2023-02-13T23:29:08.885Z,27.88
2023-02-13T23:31:35.873Z,27.73
2023-02-13T23:34:02.921Z,26.02
2023-02-13T23:36:29.879Z,25.65
2023-02-13T23:38:56.779Z,24.42
2023-02-13T23:41:23.676Z,24.63
2023-02-13T23:43:50.620Z,24.42
2023-02-13T23:46:17.616Z,28.13
2023-02-13T23:48:45.978Z,62.05
2023-02-13T23:51:12.928Z,72.80
2023-02-13T23:53:39.876Z,67.35
2023-02-13T23:56:07.175Z,63.53
2023-02-13T23:58:34.085Z,54.20
